Time;durP1;ratioP1;P1;durP2;ratioP2;P2;SDS_P1;SDS_P2;PMS_P1;PMS_P2;Temp;Humidity;BMP_temperature;BMP_pressure;BME280_temperature;BME280_humidity;BME280_pressure;Samples;Min_cycle;Max_cycle;Signal;HPM_P1;HPM_P2
2023/04/08 00:01:07;;;;;;;13.73;7.55;;;4.70;99.90;;;;;;5077055;28;20132;-80
2023/04/08 00:03:32;;;;;;;12.57;7.38;;;4.70;99.90;;;;;;5060078;28;20085;-80
2023/04/08 00:05:59;;;;;;;11.95;6.63;;;4.70;99.90;;;;;;5084124;28;20036;-80
2023/04/08 00:08:25;;;;;;;13.50;7.50;;;4.60;99.90;;;;;;5081779;28;20135;-80
2023/04/08 00:10:51;;;;;;;14.63;7.70;;;5.00;99.90;;;;;;5080972;28;20488;-80
2023/04/08 00:13:17;;;;;;;13.07;7.55;;;4.60;99.90;;;;;;5067839;28;20077;-79
2023/04/08 00:15:42;;;;;;;13.68;7.40;;;4.60;99.90;;;;;;5069272;28;20381;-79
2023/04/08 00:18:08;;;;;;;16.70;8.35;;;4.60;99.90;;;;;;5060058;28;20103;-80
2023/04/08 00:20:34;;;;;;;14.07;7.80;;;4.50;99.90;;;;;;5079679;28;20485;-79
2023/04/08 00:22:59;;;;;;;14.07;8.20;;;4.50;99.90;;;;;;5076050;28;20032;-80
2023/04/08 00:25:25;;;;;;;14.02;8.57;;;4.60;99.90;;;;;;5079847;28;20042;-80
2023/04/08 00:27:51;;;;;;;14.85;8.43;;;4.50;99.90;;;;;;5075946;28;20040;-78
2023/04/08 00:30:17;;;;;;;15.32;8.38;;;3.80;99.90;;;;;;5069745;28;20059;-78
2023/04/08 00:32:43;;;;;;;15.05;7.80;;;4.50;99.90;;;;;;5052716;28;20036;-80
2023/04/08 00:35:09;;;;;;;14.18;8.40;;;4.50;99.90;;;;;;5080121;28;20105;-79
2023/04/08 00:37:35;;;;;;;16.02;8.88;;;4.50;99.90;;;;;;5077653;28;20131;-79
2023/04/08 00:40:00;;;;;;;15.35;9.05;;;4.50;99.90;;;;;;5069677;28;20119;-79
2023/04/08 00:42:27;;;;;;;14.00;8.32;;;4.40;99.90;;;;;;5035630;28;20101;-79
2023/04/08 00:44:53;;;;;;;15.40;8.77;;;2.90;99.90;;;;;;5073292;28;20040;-79
2023/04/08 00:47:18;;;;;;;13.13;7.80;;;6.10;99.90;;;;;;5073298;28;20039;-79
2023/04/08 00:49:44;;;;;;;16.38;9.20;;;5.20;99.90;;;;;;5088011;28;20028;-78
2023/04/08 00:52:10;;;;;;;15.07;9.02;;;5.60;99.90;;;;;;5066945;28;20044;-79
2023/04/08 00:54:37;;;;;;;14.57;8.73;;;4.40;99.90;;;;;;5081545;28;20103;-79
2023/04/08 00:57:04;;;;;;;15.35;9.05;;;4.80;99.90;;;;;;5057865;28;20036;-79
2023/04/08 00:59:31;;;;;;;14.68;9.18;;;4.60;99.90;;;;;;5076598;28;20051;-79
2023/04/08 01:02:18;;;;;;;14.52;9.23;;;4.40;99.90;;;;;;5042242;28;20058;-80
2023/04/08 01:05:05;;;;;;;14.95;9.25;;;4.40;99.90;;;;;;5071793;28;20044;-79
2023/04/08 01:07:34;;;;;;;15.02;8.85;;;4.40;99.90;;;;;;5050882;28;20609;-79
2023/04/08 01:10:11;;;;;;;17.45;9.75;;;4.30;99.90;;;;;;5072558;28;20047;-79
2023/04/08 01:12:42;;;;;;;15.77;9.55;;;4.30;99.90;;;;;;5076018;28;20051;-79
2023/04/08 01:15:11;;;;;;;17.55;9.90;;;4.40;99.90;;;;;;5070789;28;20048;-79
2023/04/08 01:17:38;;;;;;;15.38;9.75;;;4.20;99.90;;;;;;5076094;28;20044;-79
2023/04/08 01:20:05;;;;;;;16.58;10.35;;;4.50;99.90;;;;;;5072323;28;20607;-79
2023/04/08 01:22:54;;;;;;;17.00;9.77;;;4.20;99.90;;;;;;5073507;28;20040;-79
2023/04/08 01:25:25;;;;;;;18.48;10.55;;;5.60;99.90;;;;;;5064937;28;20072;-79
2023/04/08 01:27:56;;;;;;;18.00;10.52;;;4.10;99.90;;;;;;5077202;28;20489;-79
2023/04/08 01:30:24;;;;;;;17.83;10.52;;;4.50;99.90;;;;;;5052875;28;20052;-79
2023/04/08 01:32:53;;;;;;;17.05;10.60;;;4.10;99.90;;;;;;5079837;28;20115;-79
2023/04/08 01:35:19;;;;;;;16.55;10.75;;;4.10;99.90;;;;;;5053320;28;20051;-79
2023/04/08 01:37:47;;;;;;;16.80;10.43;;;4.00;99.90;;;;;;5078085;28;20527;-79
2023/04/08 01:40:14;;;;;;;18.73;11.93;;;4.70;99.90;;;;;;5069196;28;20032;-79
2023/04/08 01:42:41;;;;;;;19.52;11.18;;;4.80;99.90;;;;;;5072570;28;20119;-79
2023/04/08 01:45:09;;;;;;;17.85;10.98;;;4.00;99.90;;;;;;5055373;28;20044;-79
2023/04/08 01:47:36;;;;;;;18.08;11.45;;;4.00;99.90;;;;;;5073121;28;20040;-80
2023/04/08 01:50:02;;;;;;;16.92;10.10;;;4.00;99.90;;;;;;5082121;28;20040;-79
2023/04/08 01:52:29;;;;;;;17.77;10.85;;;4.00;99.90;;;;;;5063100;28;20055;-79
2023/04/08 01:54:55;;;;;;;18.25;11.43;;;4.00;99.90;;;;;;5080828;28;20501;-79
2023/04/08 01:57:27;;;;;;;18.23;10.93;;;3.90;99.90;;;;;;5040339;28;20052;-79
2023/04/08 01:59:58;;;;;;;20.35;11.82;;;4.30;99.90;;;;;;5057153;28;20055;-80
2023/04/08 02:02:26;;;;;;;19.50;11.80;;;3.90;99.90;;;;;;5076944;28;20481;-79
2023/04/08 02:04:53;;;;;;;17.45;11.48;;;3.90;99.90;;;;;;5056366;28;20342;-79
2023/04/08 02:07:19;;;;;;;18.67;11.68;;;4.10;99.90;;;;;;5063128;28;20039;-79
2023/04/08 02:09:45;;;;;;;19.42;11.88;;;4.00;99.90;;;;;;5069197;28;20040;-79
2023/04/08 02:12:11;;;;;;;20.42;11.93;;;3.90;99.90;;;;;;5080725;28;20047;-79
2023/04/08 02:14:37;;;;;;;17.95;10.82;;;3.90;99.90;;;;;;5056722;28;20051;-80
2023/04/08 02:17:12;;;;;;;19.27;11.85;;;5.30;99.90;;;;;;5061235;28;20108;-79
2023/04/08 02:20:33;;;;;;;18.75;12.27;;;4.40;99.90;;;;;;5078413;28;20032;-79
2023/04/08 02:23:08;;;;;;;18.15;11.43;;;3.80;99.90;;;;;;5070940;28;20097;-79
2023/04/08 02:25:36;;;;;;;17.05;11.05;;;4.00;99.90;;;;;;5059107;28;20374;-80
2023/04/08 02:28:09;;;;;;;19.63;11.75;;;3.80;99.90;;;;;;5079411;28;20040;-79
2023/04/08 02:30:35;;;;;;;;;;;3.80;99.90;;;;;;5069519;28;20079;-81
2023/04/08 02:33:04;;;;;;;18.58;11.05;;;3.80;99.90;;;;;;5080294;28;19931;-80
2023/04/08 02:35:31;;;;;;;16.92;10.80;;;3.80;99.90;;;;;;5060670;28;20034;-79
2023/04/08 02:37:56;;;;;;;17.73;11.50;;;3.80;99.90;;;;;;5074741;28;20041;-79
2023/04/08 02:40:26;;;;;;;18.20;11.07;;;4.10;99.90;;;;;;5057523;28;20040;-79
2023/04/08 02:42:53;;;;;;;17.38;11.65;;;3.80;99.90;;;;;;5078517;28;20573;-80
2023/04/08 02:45:19;;;;;;;21.00;13.00;;;4.20;99.90;;;;;;5068541;28;20060;-79
2023/04/08 02:47:45;;;;;;;18.25;11.82;;;3.80;99.90;;;;;;5074913;28;20071;-79
2023/04/08 02:50:10;;;;;;;21.30;12.90;;;3.70;99.90;;;;;;5081468;28;20119;-79
2023/04/08 02:52:36;;;;;;;18.05;11.75;;;4.40;99.90;;;;;;5075040;28;20156;-79
2023/04/08 02:55:02;;;;;;;18.48;11.30;;;4.20;99.90;;;;;;5048997;28;20587;-79
2023/04/08 02:57:28;;;;;;;19.02;11.48;;;3.60;99.90;;;;;;5065136;28;20052;-79
2023/04/08 02:59:53;;;;;;;18.17;11.82;;;3.90;99.90;;;;;;5077472;28;20028;-79
2023/04/08 03:02:19;;;;;;;18.70;12.07;;;3.60;99.90;;;;;;5041830;28;20393;-79
2023/04/08 03:04:45;;;;;;;19.33;12.23;;;4.00;99.90;;;;;;5059259;28;20032;-80
2023/04/08 03:07:11;;;;;;;20.15;12.60;;;3.90;99.90;;;;;;5075934;28;20054;-79
2023/04/08 03:09:36;;;;;;;19.40;12.43;;;3.50;99.90;;;;;;5071403;28;20035;-79
2023/04/08 03:12:02;;;;;;;20.27;13.02;;;3.50;99.90;;;;;;5057725;28;20031;-79
2023/04/08 03:14:28;;;;;;;19.52;12.48;;;3.50;99.90;;;;;;5079613;28;20028;-79
2023/04/08 03:16:53;;;;;;;20.17;12.30;;;4.60;99.90;;;;;;5043739;28;20044;-79
2023/04/08 03:19:19;;;;;;;20.02;12.68;;;3.50;99.90;;;;;;5047221;28;20055;-79
2023/04/08 03:21:45;;;;;;;18.55;12.27;;;3.50;99.90;;;;;;5079319;28;20037;-79
2023/04/08 03:24:11;;;;;;;19.83;12.30;;;3.40;99.90;;;;;;5079076;28;20036;-80
2023/04/08 03:26:36;;;;;;;20.70;12.80;;;3.40;99.90;;;;;;5061332;28;20109;-80
2023/04/08 03:29:02;;;;;;;19.48;12.18;;;4.50;99.90;;;;;;5047760;28;20046;-80
2023/04/08 03:31:28;;;;;;;20.88;13.35;;;3.40;99.90;;;;;;5059829;28;20051;-80
2023/04/08 03:33:53;;;;;;;21.58;12.18;;;3.40;99.90;;;;;;5071933;28;20032;-79
2023/04/08 03:36:19;;;;;;;18.65;12.27;;;3.30;99.90;;;;;;5078884;28;20039;-79
2023/04/08 03:38:45;;;;;;;19.90;12.88;;;3.30;99.90;;;;;;5084363;28;20481;-79
2023/04/08 03:41:10;;;;;;;19.63;12.40;;;3.80;99.90;;;;;;5095429;28;20044;-80
2023/04/08 03:43:36;;;;;;;20.88;13.48;;;3.70;99.90;;;;;;5092552;28;20046;-80
2023/04/08 03:46:02;;;;;;;19.52;12.90;;;3.30;99.90;;;;;;5055262;28;20036;-79
2023/04/08 03:48:27;;;;;;;20.88;12.93;;;3.30;99.90;;;;;;5078835;28;20486;-80
2023/04/08 03:50:53;;;;;;;19.88;12.77;;;3.30;99.90;;;;;;5063663;28;20044;-80
2023/04/08 03:53:19;;;;;;;18.80;11.90;;;3.30;99.90;;;;;;5076146;28;20374;-80
2023/04/08 03:55:44;;;;;;;17.83;11.85;;;3.50;99.90;;;;;;5040624;28;20062;-80
2023/04/08 03:58:10;;;;;;;20.77;12.48;;;3.50;99.90;;;;;;5042001;28;20039;-79
2023/04/08 04:00:36;;;;;;;20.90;12.55;;;3.30;99.90;;;;;;5076678;28;20379;-79
2023/04/08 04:03:02;;;;;;;20.13;13.25;;;3.10;99.90;;;;;;5063068;28;20309;-79
2023/04/08 04:05:28;;;;;;;20.67;12.95;;;3.10;99.90;;;;;;5055641;28;20062;-80
2023/04/08 04:07:54;;;;;;;20.63;13.20;;;3.10;99.90;;;;;;5079534;28;20040;-80
2023/04/08 04:10:19;;;;;;;22.52;14.20;;;3.10;99.90;;;;;;5041863;28;20039;-80
2023/04/08 04:12:46;;;;;;;20.65;13.50;;;3.10;99.90;;;;;;5038711;28;20036;-80
2023/04/08 04:15:12;;;;;;;20.88;13.25;;;4.40;99.90;;;;;;5058673;28;20075;-80
2023/04/08 04:17:38;;;;;;;24.13;14.50;;;3.10;99.90;;;;;;5078156;28;20144;-80
2023/04/08 04:20:05;;;;;;;23.25;13.73;;;3.30;99.90;;;;;;5078981;28;20061;-80
2023/04/08 04:22:31;;;;;;;21.42;13.80;;;3.00;99.90;;;;;;5055034;28;20114;-78
2023/04/08 04:24:56;;;;;;;21.10;13.70;;;3.30;99.90;;;;;;5080454;28;20127;-79
2023/04/08 04:27:22;;;;;;;21.05;13.48;;;4.60;99.90;;;;;;5077371;28;20502;-79
2023/04/08 04:29:48;;;;;;;22.58;13.60;;;3.00;99.90;;;;;;5075558;28;20049;-79
2023/04/08 04:32:14;;;;;;;23.13;14.90;;;3.30;99.90;;;;;;5059923;28;20036;-79
2023/04/08 04:34:39;;;;;;;22.67;14.60;;;3.00;99.90;;;;;;5076683;28;20042;-79
2023/04/08 04:37:05;;;;;;;21.92;14.10;;;3.00;99.90;;;;;;5036105;28;20473;-79
2023/04/08 04:39:31;;;;;;;22.02;14.18;;;3.80;99.90;;;;;;5080463;28;20035;-79
2023/04/08 04:41:57;;;;;;;23.33;14.30;;;2.90;99.90;;;;;;5060818;28;20209;-79
2023/04/08 04:44:23;;;;;;;21.80;13.77;;;3.30;99.90;;;;;;5062239;28;20402;-78
2023/04/08 04:46:48;;;;;;;22.60;14.75;;;2.90;99.90;;;;;;5036111;28;20354;-79
2023/04/08 04:49:14;;;;;;;26.35;16.10;;;2.90;99.90;;;;;;5078126;28;20067;-79
2023/04/08 04:51:40;;;;;;;26.92;17.17;;;3.00;99.90;;;;;;5057384;28;20039;-79
2023/04/08 04:54:05;;;;;;;26.65;16.83;;;4.30;99.90;;;;;;5062403;28;20235;-79
2023/04/08 04:56:31;;;;;;;25.52;16.45;;;3.10;99.90;;;;;;5059018;28;20123;-79
2023/04/08 04:58:57;;;;;;;27.02;16.67;;;5.00;99.90;;;;;;5071497;28;20473;-79
2023/04/08 05:01:22;;;;;;;26.17;16.73;;;3.30;99.90;;;;;;5060947;28;20036;-79
2023/04/08 05:03:48;;;;;;;25.65;17.02;;;3.70;99.90;;;;;;5069771;28;20040;-79
2023/04/08 05:06:14;;;;;;;24.95;16.45;;;4.00;99.90;;;;;;5047644;28;20073;-79
2023/04/08 05:08:40;;;;;;;28.48;16.90;;;4.80;99.90;;;;;;5077454;28;20032;-80
2023/04/08 05:11:09;;;;;;;28.88;18.20;;;3.50;99.90;;;;;;5074964;28;20044;-79
2023/04/08 05:13:35;;;;;;;27.02;17.73;;;3.50;99.90;;;;;;5076092;28;20039;-79
2023/04/08 05:16:00;;;;;;;27.95;17.45;;;3.80;99.90;;;;;;5042150;28;20032;-79
2023/04/08 05:18:26;;;;;;;29.30;18.13;;;3.60;99.90;;;;;;5040666;28;20028;-79
2023/04/08 05:20:52;;;;;;;29.65;18.38;;;3.70;99.90;;;;;;5056713;28;20116;-79
2023/04/08 05:23:18;;;;;;;26.83;17.60;;;3.70;99.90;;;;;;5080539;28;20032;-79
2023/04/08 05:25:43;;;;;;;27.85;17.30;;;4.30;99.90;;;;;;5056930;28;20051;-80
2023/04/08 05:28:09;;;;;;;32.08;18.90;;;4.50;99.90;;;;;;5036307;28;20066;-80
2023/04/08 05:30:35;;;;;;;30.38;19.05;;;4.20;99.90;;;;;;5042103;28;20075;-80
2023/04/08 05:33:01;;;;;;;33.22;19.27;;;3.90;99.90;;;;;;5041915;28;20070;-80
2023/04/08 05:35:27;;;;;;;31.60;19.02;;;4.00;99.90;;;;;;5080313;28;20051;-80
2023/04/08 05:37:53;;;;;;;32.42;19.27;;;4.10;99.90;;;;;;5071873;28;20509;-80
2023/04/08 05:40:19;;;;;;;32.97;20.35;;;4.40;99.90;;;;;;5072449;28;20186;-79
2023/04/08 05:42:45;;;;;;;33.53;20.50;;;4.30;99.90;;;;;;5044204;28;20044;-79
2023/04/08 05:45:10;;;;;;;35.92;22.05;;;4.80;99.90;;;;;;5072574;28;20082;-79
2023/04/08 05:47:36;;;;;;;33.30;20.63;;;4.90;99.90;;;;;;5041910;28;20051;-79
2023/04/08 05:50:02;;;;;;;34.67;21.60;;;4.60;99.90;;;;;;5037458;28;20413;-79
2023/04/08 05:52:28;;;;;;;34.00;21.33;;;4.60;99.90;;;;;;5055947;28;20248;-79
2023/04/08 05:54:53;;;;;;;34.85;20.70;;;4.80;99.90;;;;;;5049974;28;20056;-80
2023/04/08 05:57:19;;;;;;;36.38;20.88;;;4.90;99.90;;;;;;5025318;28;20493;-80
2023/04/08 05:59:45;;;;;;;33.72;20.63;;;5.00;99.90;;;;;;5041746;28;20042;-80
2023/04/08 06:02:10;;;;;;;34.30;21.40;;;5.20;99.90;;;;;;5073174;28;20046;-80
2023/04/08 06:04:36;;;;;;;33.10;20.83;;;5.10;99.90;;;;;;5028917;28;20051;-80
2023/04/08 06:07:03;;;;;;;33.42;20.60;;;5.30;99.90;;;;;;5071850;28;20050;-80
2023/04/08 06:09:29;;;;;;;33.50;20.45;;;5.70;99.90;;;;;;5052662;28;20054;-80
2023/04/08 06:11:56;;;;;;;31.23;19.38;;;5.30;99.90;;;;;;5058146;28;20040;-80
2023/04/08 06:14:21;;;;;;;28.65;18.95;;;5.30;99.90;;;;;;5066661;28;20050;-80
2023/04/08 06:16:47;;;;;;;28.75;18.17;;;5.50;99.90;;;;;;5057396;28;20059;-80
2023/04/08 06:19:13;;;;;;;29.05;18.40;;;5.60;99.90;;;;;;5057733;28;20036;-80
2023/04/08 06:21:39;;;;;;;30.00;18.98;;;5.70;99.90;;;;;;5053323;28;20505;-81
2023/04/08 06:24:05;;;;;;;27.58;16.88;;;6.30;99.90;;;;;;5060408;28;20074;-80
2023/04/08 06:26:30;;;;;;;25.45;16.63;;;5.80;99.90;;;;;;5057549;28;20039;-81
2023/04/08 06:28:56;;;;;;;24.65;15.65;;;5.90;99.90;;;;;;5058031;28;20109;-81
2023/04/08 06:31:22;;;;;;;25.20;15.80;;;5.90;99.90;;;;;;5054903;28;20051;-80
2023/04/08 06:33:47;;;;;;;23.63;14.80;;;5.90;99.90;;;;;;5048588;28;20104;-81
2023/04/08 06:36:13;;;;;;;23.35;14.38;;;5.90;99.90;;;;;;5075770;28;20036;-81
2023/04/08 06:38:39;;;;;;;23.27;14.25;;;6.00;99.90;;;;;;5059136;28;20046;-80
2023/04/08 06:41:06;;;;;;;23.65;13.98;;;6.00;99.90;;;;;;5052625;28;20039;-80
2023/04/08 06:43:33;;;;;;;23.67;15.02;;;6.10;99.90;;;;;;5092780;28;20040;-80
2023/04/08 06:45:58;;;;;;;22.30;14.32;;;6.10;99.90;;;;;;5086355;28;20511;-80
2023/04/08 06:48:29;;;;;;;20.70;12.95;;;6.20;99.90;;;;;;5079578;28;20051;-81
2023/04/08 06:50:59;;;;;;;21.35;13.32;;;6.20;99.90;;;;;;5090775;28;20056;-81
2023/04/08 06:53:28;;;;;;;20.05;12.38;;;6.60;99.90;;;;;;5064329;28;20035;-81
2023/04/08 06:55:54;;;;;;;18.90;12.27;;;6.30;99.90;;;;;;5056500;28;20047;-81
2023/04/08 06:58:19;;;;;;;19.65;13.02;;;6.40;99.90;;;;;;5076094;28;20040;-81
2023/04/08 07:00:46;;;;;;;19.70;12.75;;;6.50;99.90;;;;;;5061918;28;21631;-81
2023/04/08 07:03:12;;;;;;;19.50;12.60;;;6.70;99.90;;;;;;5080606;28;20068;-81
2023/04/08 07:05:38;;;;;;;20.33;12.30;;;6.50;99.90;;;;;;5061402;28;20121;-81
2023/04/08 07:08:05;;;;;;;19.33;12.63;;;6.50;99.90;;;;;;5048471;28;20107;-81
2023/04/08 07:10:31;;;;;;;20.05;12.45;;;6.50;99.90;;;;;;5073905;28;20036;-79
2023/04/08 07:12:57;;;;;;;20.20;12.32;;;6.70;99.90;;;;;;5064180;28;20043;-81
2023/04/08 07:15:22;;;;;;;18.45;11.52;;;6.60;99.90;;;;;;5061973;28;20040;-81
2023/04/08 07:17:48;;;;;;;19.77;12.20;;;6.60;99.90;;;;;;5077979;28;20067;-81
2023/04/08 07:20:14;;;;;;;19.23;11.38;;;6.70;99.90;;;;;;5060649;28;20090;-81
2023/04/08 07:22:40;;;;;;;19.70;11.80;;;6.70;99.90;;;;;;5040315;28;20060;-81
2023/04/08 07:25:06;;;;;;;17.70;11.40;;;6.70;99.90;;;;;;5073172;28;20405;-81
2023/04/08 07:27:35;;;;;;;16.90;10.68;;;6.70;99.90;;;;;;5071194;28;20036;-81
2023/04/08 07:30:01;;;;;;;19.08;11.98;;;6.70;99.90;;;;;;5078070;28;20047;-81
2023/04/08 07:32:27;;;;;;;17.88;10.85;;;6.70;99.90;;;;;;5057488;28;20047;-81
2023/04/08 07:34:53;;;;;;;16.30;10.45;;;6.80;99.90;;;;;;5077236;28;20036;-81
2023/04/08 07:37:19;;;;;;;19.52;10.82;;;6.80;99.90;;;;;;5073085;28;20051;-81
2023/04/08 07:39:45;;;;;;;16.98;9.85;;;6.90;99.90;;;;;;5076571;28;20040;-81
2023/04/08 07:42:10;;;;;;;17.73;10.10;;;6.80;99.90;;;;;;5074857;28;20075;-81
2023/04/08 07:44:37;;;;;;;18.38;10.52;;;7.20;99.90;;;;;;5076473;28;20044;-81
2023/04/08 07:47:03;;;;;;;17.83;10.40;;;6.80;99.90;;;;;;5056660;28;20119;-81
2023/04/08 07:49:28;;;;;;;17.73;10.95;;;6.90;99.90;;;;;;5082044;28;20115;-79
2023/04/08 07:51:54;;;;;;;19.80;11.55;;;7.00;99.90;;;;;;5040617;28;20031;-79
2023/04/08 07:54:20;;;;;;;18.88;11.43;;;7.00;99.90;;;;;;5078178;28;20085;-80
2023/04/08 07:56:46;;;;;;;17.35;10.60;;;7.00;99.90;;;;;;5058285;28;20052;-80
2023/04/08 07:59:11;;;;;;;19.83;12.15;;;7.00;99.90;;;;;;5042150;28;20040;-79
2023/04/08 08:01:37;;;;;;;18.00;11.27;;;7.10;99.90;;;;;;5045739;28;20032;-79
2023/04/08 08:04:03;;;;;;;19.73;12.20;;;7.10;99.90;;;;;;5045313;28;20127;-80
2023/04/08 08:06:32;;;;;;;19.08;11.80;;;7.10;99.90;;;;;;5063611;28;20035;-80
2023/04/08 08:08:59;;;;;;;19.15;11.80;;;7.10;99.90;;;;;;5068982;28;20039;-80
2023/04/08 08:11:27;;;;;;;20.80;12.35;;;7.20;99.90;;;;;;5074778;28;20032;-80
2023/04/08 08:13:53;;;;;;;20.33;12.70;;;7.10;99.90;;;;;;5066319;28;20031;-80
2023/04/08 08:16:19;;;;;;;19.55;12.30;;;7.10;99.90;;;;;;5074908;28;20089;-80
2023/04/08 08:18:45;;;;;;;19.88;12.55;;;7.10;99.90;;;;;;5076583;28;20028;-81
2023/04/08 08:21:11;;;;;;;21.00;13.32;;;7.00;99.90;;;;;;5056053;28;20028;-79
2023/04/08 08:23:36;;;;;;;21.23;12.90;;;7.00;99.90;;;;;;5062432;28;20028;-79
2023/04/08 08:26:05;;;;;;;20.88;12.02;;;7.10;99.90;;;;;;5061702;28;20085;-80
2023/04/08 08:28:31;;;;;;;20.75;12.30;;;7.00;99.90;;;;;;5054295;28;20058;-79
2023/04/08 08:30:57;;;;;;;19.15;11.23;;;7.00;99.90;;;;;;5057551;28;20577;-80
2023/04/08 08:33:24;;;;;;;19.00;11.90;;;7.00;99.90;;;;;;5079848;28;20044;-80
2023/04/08 08:35:51;;;;;;;17.08;11.07;;;7.00;99.90;;;;;;5079316;28;20044;-80
2023/04/08 08:38:17;;;;;;;18.13;10.77;;;7.00;99.90;;;;;;5058945;28;20101;-80
2023/04/08 08:40:44;;;;;;;16.73;10.82;;;7.00;99.90;;;;;;5076221;28;20055;-80
2023/04/08 08:43:10;;;;;;;17.30;10.23;;;7.40;99.90;;;;;;5081725;28;20047;-80
2023/04/08 08:45:40;;;;;;;17.40;10.38;;;7.10;99.90;;;;;;5054370;28;20285;-80
2023/04/08 08:48:10;;;;;;;17.63;10.25;;;7.10;99.90;;;;;;5054115;28;20042;-80
2023/04/08 08:50:35;;;;;;;18.50;10.55;;;7.10;99.90;;;;;;5042781;28;20058;-80
2023/04/08 08:53:02;;;;;;;16.35;10.30;;;7.20;99.90;;;;;;5059057;28;20443;-79
2023/04/08 08:55:33;;;;;;;16.60;10.02;;;7.30;99.90;;;;;;5076948;28;20044;-80
2023/04/08 08:58:00;;;;;;;16.60;9.65;;;7.30;99.90;;;;;;5078970;28;20078;-80
2023/04/08 09:00:43;;;;;;;15.80;9.73;;;7.70;99.90;;;;;;5072819;28;20150;-80
2023/04/08 09:03:20;;;;;;;15.45;9.02;;;7.30;99.90;;;;;;5058039;28;20048;-80
2023/04/08 09:05:55;;;;;;;14.48;8.55;;;7.20;99.90;;;;;;5069722;28;20558;-81
2023/04/08 09:08:31;;;;;;;14.88;9.10;;;7.20;99.90;;;;;;5076144;28;20036;-81
2023/04/08 09:11:18;;;;;;;16.88;10.20;;;7.20;99.90;;;;;;5081645;28;20588;-81
2023/04/08 09:13:45;;;;;;;15.38;8.80;;;7.20;99.90;;;;;;5074923;28;20036;-80
2023/04/08 09:16:13;;;;;;;15.90;8.88;;;7.30;99.90;;;;;;5079870;28;20028;-81
2023/04/08 09:18:42;;;;;;;15.55;9.88;;;7.30;99.90;;;;;;5035127;28;20090;-81
2023/04/08 09:21:08;;;;;;;15.75;9.02;;;7.30;99.90;;;;;;5058271;28;20466;-80
2023/04/08 09:23:40;;;;;;;17.25;9.48;;;7.40;99.90;;;;;;5073426;28;20089;-79
2023/04/08 09:26:11;;;;;;;15.02;8.70;;;7.40;99.90;;;;;;5062490;28;20115;-79
2023/04/08 09:28:38;;;;;;;17.45;9.82;;;7.60;99.90;;;;;;5075472;28;20040;-79
2023/04/08 09:31:26;;;;;;;16.50;9.63;;;7.70;99.90;;;;;;5078943;28;20051;-80
2023/04/08 09:33:54;;;;;;;17.13;10.45;;;7.80;99.90;;;;;;5075051;28;20133;-80
2023/04/08 09:36:20;;;;;;;17.38;10.45;;;7.80;99.90;;;;;;5079611;28;20113;-81
2023/04/08 09:38:46;;;;;;;19.27;10.43;;;7.90;99.90;;;;;;5100713;28;20051;-79
2023/04/08 09:41:16;;;;;;;18.00;11.50;;;8.00;99.90;;;;;;5093704;28;20063;-80
2023/04/08 09:43:48;;;;;;;18.27;10.60;;;8.00;99.90;;;;;;5086941;28;20100;-80
2023/04/08 09:46:15;;;;;;;19.05;11.63;;;8.10;99.90;;;;;;5073564;28;20039;-79
2023/04/08 09:48:48;;;;;;;18.25;11.38;;;8.20;99.90;;;;;;5083460;28;20031;-80
2023/04/08 09:51:17;;;;;;;19.58;11.82;;;8.30;99.90;;;;;;5073363;28;20059;-80
2023/04/08 09:53:48;;;;;;;18.55;11.93;;;8.40;99.90;;;;;;5069710;28;20097;-80
2023/04/08 09:56:18;;;;;;;18.00;11.38;;;8.50;99.90;;;;;;5074744;28;20123;-80
2023/04/08 09:59:12;;;;;;;18.50;11.32;;;8.60;99.90;;;;;;5085134;28;20075;-80
2023/04/08 10:01:42;;;;;;;17.70;11.05;;;8.60;99.90;;;;;;5075652;28;20115;-80
2023/04/08 10:04:13;;;;;;;18.90;10.93;;;8.60;99.90;;;;;;5037276;28;20067;-80
2023/04/08 10:06:40;;;;;;;19.45;11.68;;;8.70;99.90;;;;;;5075125;28;20102;-81
2023/04/08 10:09:06;;;;;;;18.85;11.43;;;8.80;99.90;;;;;;5076002;28;20024;-81
2023/04/08 10:11:33;;;;;;;20.25;11.75;;;8.80;99.90;;;;;;5058905;28;20067;-80
2023/04/08 10:13:59;;;;;;;20.35;12.00;;;8.70;99.90;;;;;;5074858;28;20273;-80
2023/04/08 10:16:26;;;;;;;21.88;12.93;;;8.80;99.90;;;;;;5073966;28;20036;-80
2023/04/08 10:18:56;;;;;;;21.38;11.70;;;8.90;99.90;;;;;;5080325;28;20046;-80
2023/04/08 10:21:38;;;;;;;19.90;11.63;;;8.90;99.90;;;;;;5064627;28;20135;-80
2023/04/08 10:24:10;;;;;;;19.42;12.00;;;8.90;99.90;;;;;;5071852;28;20756;-80
2023/04/08 10:26:47;;;;;;;20.00;12.10;;;8.90;99.90;;;;;;5059019;28;20038;-80
2023/04/08 10:29:16;;;;;;;20.15;12.05;;;9.00;99.90;;;;;;5060327;28;20044;-80
2023/04/08 10:31:42;;;;;;;20.50;12.55;;;9.00;99.90;;;;;;5081816;28;20067;-81
2023/04/08 10:34:25;;;;;;;19.67;12.18;;;9.00;99.90;;;;;;5065249;28;20048;-81
2023/04/08 10:36:53;;;;;;;20.55;12.38;;;9.10;99.90;;;;;;5080963;28;20054;-81
2023/04/08 10:39:19;;;;;;;21.45;12.90;;;9.10;99.90;;;;;;5087129;28;20047;-81
2023/04/08 10:41:46;;;;;;;20.90;12.80;;;9.00;99.90;;;;;;5063038;28;20036;-80
2023/04/08 10:44:18;;;;;;;21.80;13.68;;;9.10;99.90;;;;;;5079361;28;20075;-80
2023/04/08 10:46:49;;;;;;;20.58;13.18;;;9.10;99.90;;;;;;5081136;28;20040;-80
2023/04/08 10:49:16;;;;;;;21.42;12.80;;;9.30;99.90;;;;;;5080089;28;20386;-81
2023/04/08 10:51:45;;;;;;;22.17;13.23;;;9.20;99.90;;;;;;5043310;28;20032;-80
2023/04/08 10:54:17;;;;;;;21.85;13.00;;;9.20;99.90;;;;;;5055969;28;20416;-79
2023/04/08 10:56:48;;;;;;;21.05;13.20;;;9.30;99.90;;;;;;5071740;28;20663;-79
2023/04/08 10:59:16;;;;;;;22.75;14.60;;;9.40;99.90;;;;;;5077110;28;20055;-79
2023/04/08 11:01:44;;;;;;;21.73;14.27;;;9.40;99.90;;;;;;5058689;28;20489;-80
2023/04/08 11:04:18;;;;;;;22.75;14.18;;;9.40;99.90;;;;;;5045822;28;20127;-80
2023/04/08 11:06:46;;;;;;;23.25;14.30;;;9.50;99.90;;;;;;5062117;28;20527;-80
2023/04/08 11:09:13;;;;;;;23.20;14.02;;;9.50;99.90;;;;;;5060386;28;20036;-80
2023/04/08 11:11:42;;;;;;;25.83;14.93;;;9.60;99.90;;;;;;5079387;28;20032;-79
2023/04/08 11:14:08;;;;;;;23.60;14.40;;;9.60;99.90;;;;;;5080567;28;20035;-80
2023/04/08 11:16:35;;;;;;;26.00;15.45;;;9.70;99.90;;;;;;5077012;28;20123;-80
2023/04/08 11:19:04;;;;;;;23.13;14.73;;;9.70;99.90;;;;;;5073205;28;20081;-80
2023/04/08 11:21:31;;;;;;;24.02;14.98;;;9.70;99.90;;;;;;5086522;28;20036;-80
2023/04/08 11:23:57;;;;;;;24.73;14.30;;;9.70;99.90;;;;;;5080054;28;20393;-80
2023/04/08 11:26:24;;;;;;;24.50;14.68;;;9.80;99.90;;;;;;5076570;28;20431;-80
2023/04/08 11:28:51;;;;;;;28.52;15.52;;;9.80;99.90;;;;;;5059866;28;20032;-80
2023/04/08 11:31:18;;;;;;;25.90;14.90;;;9.80;99.90;;;;;;5060676;28;20044;-80
2023/04/08 11:33:46;;;;;;;25.65;15.27;;;9.80;99.90;;;;;;5083235;28;20110;-80
2023/04/08 11:36:12;;;;;;;23.60;13.98;;;9.80;99.90;;;;;;5069463;28;20478;-80
2023/04/08 11:38:41;;;;;;;22.05;12.63;;;9.80;99.90;;;;;;5078912;28;20074;-80
2023/04/08 11:41:07;;;;;;;20.25;12.27;;;9.90;99.90;;;;;;5076455;28;20438;-80
2023/04/08 11:43:32;;;;;;;22.05;12.52;;;9.80;99.90;;;;;;5067941;28;20074;-80
2023/04/08 11:45:58;;;;;;;22.38;13.57;;;9.80;99.90;;;;;;5071192;28;20119;-80
2023/04/08 11:48:24;;;;;;;22.80;13.68;;;9.80;99.90;;;;;;5078656;28;20188;-80
2023/04/08 11:51:03;;;;;;;22.10;13.77;;;9.80;99.90;;;;;;5068078;28;20611;-80
2023/04/08 11:53:29;;;;;;;20.63;12.98;;;9.80;99.90;;;;;;5053219;28;20028;-80
2023/04/08 11:55:55;;;;;;;21.77;13.80;;;9.80;99.90;;;;;;5061022;28;20489;-80
2023/04/08 11:58:21;;;;;;;23.95;14.18;;;9.80;99.90;;;;;;5059655;28;20567;-80
2023/04/08 12:00:48;;;;;;;22.65;14.23;;;9.70;99.90;;;;;;5075829;28;20036;-80
2023/04/08 12:03:14;;;;;;;22.85;14.48;;;9.80;99.90;;;;;;5064131;28;20048;-80
2023/04/08 12:05:41;;;;;;;24.52;14.70;;;9.80;99.90;;;;;;5078933;28;20036;-80
2023/04/08 12:08:07;;;;;;;25.83;16.17;;;9.90;99.90;;;;;;5077581;28;20515;-81
2023/04/08 12:10:32;;;;;;;27.17;16.63;;;9.90;99.90;;;;;;5059484;28;20489;-81
2023/04/08 12:12:58;;;;;;;27.90;17.95;;;9.90;99.90;;;;;;5085356;28;20115;-81
2023/04/08 12:15:24;;;;;;;28.98;18.77;;;10.00;99.90;;;;;;5076229;28;20515;-81
2023/04/08 12:17:49;;;;;;;29.10;18.65;;;10.00;99.90;;;;;;5084611;28;20439;-81
2023/04/08 12:20:16;;;;;;;27.48;18.25;;;9.90;99.90;;;;;;5063589;28;20036;-81
2023/04/08 12:22:41;;;;;;;28.10;17.63;;;10.00;99.90;;;;;;5093494;28;20028;-81
2023/04/08 12:25:08;;;;;;;27.13;17.67;;;10.00;99.90;;;;;;5081414;28;20028;-81
2023/04/08 12:27:33;;;;;;;25.38;17.08;;;10.00;99.90;;;;;;5078153;28;20040;-81
2023/04/08 12:30:00;;;;;;;28.90;19.20;;;10.00;99.90;;;;;;5046864;28;20147;-81
2023/04/08 12:32:26;;;;;;;24.52;16.48;;;10.00;99.90;;;;;;5078583;28;20037;-81
2023/04/08 12:34:52;;;;;;;26.30;17.92;;;10.10;99.90;;;;;;5070941;28;20043;-81
2023/04/08 12:37:19;;;;;;;24.13;16.65;;;10.10;99.90;;;;;;5045859;28;20545;-81
2023/04/08 12:39:45;;;;;;;23.77;15.75;;;10.10;99.90;;;;;;5063466;28;20075;-79